createdAt,value
2016-10-09T00:00:23.903Z,7.37
2016-10-09T00:01:23.569Z,7.34
2016-10-09T00:02:23.816Z,7.25
2016-10-09T00:03:23.481Z,7.31
2016-10-09T00:04:23.755Z,7.31
2016-10-09T00:05:23.716Z,7.34
2016-10-09T00:06:23.665Z,7.39
2016-10-09T00:07:23.631Z,7.3
2016-10-09T00:08:23.589Z,7.32
2016-10-09T00:09:23.247Z,7.28
2016-10-09T00:10:23.520Z,7.25
2016-10-09T00:11:23.475Z,7.24
2016-10-09T00:12:23.439Z,7.21
2016-10-09T00:13:23.397Z,7.25
2016-10-09T00:14:23.356Z,7.25
2016-10-09T00:15:23.317Z,7.21
2016-10-09T00:16:23.282Z,7.21
2016-10-09T00:17:23.253Z,7.17
2016-10-09T00:18:22.903Z,7.24
2016-10-09T00:19:22.866Z,7.17
2016-10-09T00:20:22.828Z,7.17
2016-10-09T00:21:22.796Z,7.21
2016-10-09T00:22:23.049Z,7.16
2016-10-09T00:23:23.012Z,7.23
2016-10-09T00:24:22.672Z,7.16
2016-10-09T00:25:22.933Z,7.23
2016-10-09T00:26:22.596Z,7.15
2016-10-09T00:27:22.855Z,7.12
2016-10-09T00:28:22.517Z,7.17
2016-10-09T00:29:22.780Z,7.17
2016-10-09T00:30:22.739Z,7.1
2016-10-09T00:31:22.706Z,7.1
2016-10-09T00:32:22.664Z,7.1
2016-10-09T00:33:22.626Z,7.07
2016-10-09T00:34:22.282Z,7.09
2016-10-09T00:35:22.548Z,7.12
2016-10-09T00:36:22.511Z,7.13
2016-10-09T00:37:22.472Z,7.12
2016-10-09T00:38:22.431Z,6.99
2016-10-09T00:39:22.393Z,7.12
2016-10-09T00:40:22.356Z,7.12
2016-10-09T00:41:22.022Z,7.17
2016-10-09T00:42:21.975Z,7.1
2016-10-09T00:43:22.237Z,7.09
2016-10-09T00:44:22.204Z,7.07
2016-10-09T00:45:22.166Z,7.13
2016-10-09T00:46:21.821Z,7.07
2016-10-09T00:47:21.783Z,7.15
2016-10-09T00:48:21.743Z,7.12
2016-10-09T00:49:22.006Z,7.17
2016-10-09T00:50:21.971Z,7.12
2016-10-09T00:51:21.624Z,7.09
2016-10-09T00:52:21.895Z,7.1
2016-10-09T00:53:21.850Z,7.1
2016-10-09T00:54:21.817Z,7.09
2016-10-09T00:55:21.775Z,7.07
2016-10-09T00:56:21.435Z,7.1
2016-10-09T00:57:21.396Z,7.13
2016-10-09T00:58:21.361Z,7.13
2016-10-09T00:59:21.623Z,7.1
2016-10-09T01:00:20.980Z,7.2
2016-10-09T01:01:21.543Z,7.15
2016-10-09T01:02:21.204Z,7.15
2016-10-09T01:03:21.173Z,7.12
2016-10-09T01:04:21.428Z,7.09
2016-10-09T01:05:21.394Z,7.12
2016-10-09T01:06:21.066Z,7.07
2016-10-09T01:07:21.010Z,7.1
2016-10-09T01:08:21.273Z,7.06
2016-10-09T01:09:20.933Z,6.99
2016-10-09T01:10:20.895Z,7.03
2016-10-09T01:11:20.859Z,7.06
2016-10-09T01:12:21.117Z,6.99
2016-10-09T01:13:21.079Z,7.03
2016-10-09T01:14:21.041Z,7.09
2016-10-09T01:15:21.002Z,7.02
2016-10-09T01:16:20.960Z,7.05
2016-10-09T01:17:20.624Z,7.05
2016-10-09T01:18:20.892Z,7.05
2016-10-09T01:19:20.547Z,7.05
2016-10-09T01:20:20.506Z,6.99
2016-10-09T01:21:20.775Z,7.03
2016-10-09T01:22:20.728Z,6.95
2016-10-09T01:23:20.396Z,6.97
2016-10-09T01:24:20.653Z,6.98
2016-10-09T01:25:20.318Z,6.95
2016-10-09T01:26:20.577Z,6.88
2016-10-09T01:27:20.537Z,6.85
2016-10-09T01:28:19.901Z,6.88
2016-10-09T01:29:20.456Z,6.91
2016-10-09T01:30:20.122Z,6.97
2016-10-09T01:31:20.386Z,6.88
2016-10-09T01:32:20.345Z,6.94
2016-10-09T01:33:20.316Z,6.94
2016-10-09T01:34:19.965Z,6.91
2016-10-09T01:35:20.228Z,6.89
2016-10-09T01:36:19.886Z,6.91
2016-10-09T01:37:19.847Z,6.92
2016-10-09T01:38:20.112Z,6.91
2016-10-09T01:39:20.078Z,6.89
2016-10-09T01:40:20.036Z,6.94
2016-10-09T01:41:19.994Z,6.92
2016-10-09T01:42:19.958Z,6.95
2016-10-09T01:43:19.617Z,6.87
2016-10-09T01:44:19.881Z,6.91
2016-10-09T01:45:19.839Z,6.88
2016-10-09T01:46:19.499Z,6.88
2016-10-09T01:47:19.769Z,6.94
2016-10-09T01:48:19.734Z,6.94
2016-10-09T01:49:19.697Z,6.88
2016-10-09T01:50:19.652Z,6.92
2016-10-09T01:51:19.306Z,6.91
2016-10-09T01:52:19.570Z,6.88
2016-10-09T01:53:19.535Z,6.88
2016-10-09T01:54:19.501Z,6.89
2016-10-09T01:55:19.455Z,6.92
2016-10-09T01:56:19.120Z,6.87
2016-10-09T01:57:19.377Z,6.94
2016-10-09T01:58:19.351Z,6.92
2016-10-09T01:59:19.010Z,6.92
2016-10-09T02:00:19.257Z,6.94
2016-10-09T02:01:18.941Z,6.85
2016-10-09T02:02:19.187Z,6.88
2016-10-09T02:03:19.144Z,6.87
2016-10-09T02:04:19.104Z,6.85
2016-10-09T02:05:19.077Z,6.85
2016-10-09T02:06:19.029Z,6.88
2016-10-09T02:07:18.994Z,6.88
2016-10-09T02:08:18.947Z,6.87
2016-10-09T02:09:18.912Z,6.97
2016-10-09T02:10:18.573Z,6.92
2016-10-09T02:11:18.233Z,6.91
2016-10-09T02:12:18.792Z,6.85
2016-10-09T02:13:18.459Z,6.87
2016-10-09T02:14:18.721Z,6.87
2016-10-09T02:15:18.373Z,6.92
2016-10-09T02:16:18.637Z,6.84
2016-10-09T02:17:18.601Z,6.79
2016-10-09T02:18:18.579Z,6.85
2016-10-09T02:19:18.527Z,6.81
2016-10-09T02:20:18.484Z,6.79
2016-10-09T02:21:18.149Z,6.84
2016-10-09T02:22:18.403Z,6.74
2016-10-09T02:23:18.365Z,6.79
2016-10-09T02:24:18.028Z,6.73
2016-10-09T02:25:18.289Z,6.73
2016-10-09T02:26:18.248Z,6.74
2016-10-09T02:27:18.212Z,6.7
2016-10-09T02:28:18.179Z,6.69
2016-10-09T02:29:17.832Z,6.71
2016-10-09T02:30:18.093Z,6.71
2016-10-09T02:31:18.054Z,6.69
2016-10-09T02:32:18.018Z,6.71
2016-10-09T02:33:17.980Z,6.69
2016-10-09T02:34:17.943Z,6.67
2016-10-09T02:35:17.903Z,6.67
2016-10-09T02:36:17.862Z,6.7
2016-10-09T02:37:17.821Z,6.64
2016-10-09T02:38:17.787Z,6.71
2016-10-09T02:39:17.746Z,6.7
2016-10-09T02:40:17.708Z,6.73
2016-10-09T02:41:17.669Z,6.74
2016-10-09T02:42:17.330Z,6.73
2016-10-09T02:43:17.286Z,6.77
2016-10-09T02:44:17.550Z,6.73
2016-10-09T02:45:17.511Z,6.79
2016-10-09T02:46:17.472Z,6.77
2016-10-09T02:47:16.829Z,6.89
2016-10-09T02:48:16.804Z,6.91
2016-10-09T02:49:17.356Z,6.84
2016-10-09T02:50:17.016Z,6.91
2016-10-09T02:51:17.299Z,6.81
2016-10-09T02:52:17.241Z,6.84
2016-10-09T02:53:17.207Z,6.74
2016-10-09T02:54:17.162Z,6.77
2016-10-09T02:55:17.124Z,6.8
2016-10-09T02:56:17.084Z,6.76
2016-10-09T02:57:17.049Z,6.73
2016-10-09T02:58:17.007Z,6.73
2016-10-09T02:59:16.971Z,6.67
2016-10-09T03:00:16.927Z,6.67
2016-10-09T03:01:16.586Z,6.7
2016-10-09T03:02:16.847Z,6.59
2016-10-09T03:03:16.837Z,6.55
2016-10-09T03:04:16.771Z,6.51
2016-10-09T03:05:16.432Z,6.52
2016-10-09T03:06:16.692Z,6.58
2016-10-09T03:07:16.356Z,6.54
2016-10-09T03:08:16.617Z,6.44
2016-10-09T03:09:16.579Z,6.48
2016-10-09T03:10:16.539Z,6.54
2016-10-09T03:11:16.200Z,6.46
2016-10-09T03:12:16.464Z,6.52
2016-10-09T03:13:16.121Z,6.52
2016-10-09T03:14:16.384Z,6.51
2016-10-09T03:15:16.045Z,6.54
2016-10-09T03:16:16.304Z,6.46
2016-10-09T03:17:16.262Z,6.46
2016-10-09T03:18:16.229Z,6.58
2016-10-09T03:19:16.190Z,6.58
2016-10-09T03:20:16.148Z,6.55
2016-10-09T03:21:15.808Z,6.54
2016-10-09T03:22:15.768Z,6.54
2016-10-09T03:23:15.749Z,6.52
2016-10-09T03:24:15.691Z,6.59
2016-10-09T03:25:15.955Z,6.55
2016-10-09T03:26:15.922Z,6.61
2016-10-09T03:27:15.875Z,6.58
2016-10-09T03:28:15.532Z,6.61
2016-10-09T03:29:15.808Z,6.69
2016-10-09T03:30:15.758Z,6.74
2016-10-09T03:31:15.728Z,6.67
2016-10-09T03:32:15.685Z,6.69
2016-10-09T03:33:15.348Z,6.7
2016-10-09T03:34:15.300Z,6.69
2016-10-09T03:35:15.267Z,6.76
2016-10-09T03:36:15.528Z,6.69
2016-10-09T03:37:15.486Z,6.67
2016-10-09T03:38:15.148Z,6.67
2016-10-09T03:39:15.108Z,6.67
2016-10-09T03:40:15.378Z,6.73
2016-10-09T03:41:15.331Z,6.67
2016-10-09T03:42:15.291Z,6.71
2016-10-09T03:43:15.250Z,6.74
2016-10-09T03:44:15.216Z,6.79
2016-10-09T03:45:15.178Z,6.79
2016-10-09T03:46:14.834Z,6.84
2016-10-09T03:47:15.101Z,6.88
2016-10-09T03:48:15.059Z,6.87
2016-10-09T03:49:15.032Z,6.87
2016-10-09T03:50:14.983Z,6.87
2016-10-09T03:51:14.947Z,6.84
2016-10-09T03:52:14.904Z,6.87
2016-10-09T03:53:14.863Z,6.91
2016-10-09T03:54:14.825Z,6.88
2016-10-09T03:55:14.495Z,6.92
2016-10-09T03:56:14.449Z,6.79
2016-10-09T03:57:14.711Z,6.87
2016-10-09T03:58:14.670Z,6.79
2016-10-09T03:59:14.634Z,6.84
2016-10-09T04:00:14.599Z,6.84
2016-10-09T04:01:14.550Z,6.85
2016-10-09T04:02:14.514Z,6.8
2016-10-09T04:03:14.479Z,6.79
2016-10-09T04:04:14.441Z,6.79
2016-10-09T04:05:14.394Z,6.8
2016-10-09T04:06:14.358Z,6.87
2016-10-09T04:07:14.319Z,6.91
2016-10-09T04:08:14.292Z,6.91
2016-10-09T04:09:14.251Z,6.91
2016-10-09T04:10:14.205Z,6.85
2016-10-09T04:11:13.860Z,6.81
2016-10-09T04:12:14.148Z,7.02
2016-10-09T04:13:13.789Z,6.97
2016-10-09T04:14:13.753Z,6.97
2016-10-09T04:15:14.016Z,6.98
2016-10-09T04:16:13.970Z,7.05
2016-10-09T04:17:13.637Z,7.02
2016-10-09T04:18:13.588Z,6.95
2016-10-09T04:19:13.852Z,7.02
2016-10-09T04:20:13.214Z,6.99
2016-10-09T04:21:13.777Z,6.99
2016-10-09T04:22:13.738Z,7.07
2016-10-09T04:23:13.697Z,6.98
2016-10-09T04:24:13.660Z,7.02
2016-10-09T04:25:13.622Z,7.03
2016-10-09T04:26:13.584Z,6.94
2016-10-09T04:27:13.541Z,6.89
2016-10-09T04:28:13.522Z,6.91
2016-10-09T04:29:13.164Z,6.94
2016-10-09T04:30:13.427Z,6.88
2016-10-09T04:31:13.089Z,6.87
2016-10-09T04:32:13.354Z,6.85
2016-10-09T04:33:13.006Z,6.79
2016-10-09T04:34:13.272Z,6.79
2016-10-09T04:35:13.232Z,6.89
2016-10-09T04:36:12.895Z,6.87
2016-10-09T04:37:12.848Z,6.8
2016-10-09T04:38:13.115Z,6.77
2016-10-09T04:39:13.078Z,6.87
2016-10-09T04:40:13.039Z,6.76
2016-10-09T04:41:13.007Z,6.85
2016-10-09T04:42:12.958Z,6.89
2016-10-09T04:43:12.620Z,6.87
2016-10-09T04:44:12.885Z,6.79
2016-10-09T04:45:12.852Z,6.8
2016-10-09T04:46:12.813Z,6.85
2016-10-09T04:47:12.776Z,6.85
2016-10-09T04:48:12.728Z,6.85
2016-10-09T04:49:12.689Z,6.88
2016-10-09T04:50:12.648Z,6.84
2016-10-09T04:51:12.613Z,6.87
2016-10-09T04:52:12.577Z,6.92
2016-10-09T04:53:12.535Z,6.88
2016-10-09T04:54:12.494Z,6.92
2016-10-09T04:55:12.456Z,6.92
2016-10-09T04:56:12.416Z,6.88
2016-10-09T04:57:12.379Z,6.97
2016-10-09T04:58:12.338Z,6.81
2016-10-09T04:59:12.298Z,6.94
2016-10-09T05:00:12.261Z,6.91
2016-10-09T05:01:12.232Z,6.89
2016-10-09T05:02:12.180Z,6.87
2016-10-09T05:03:12.142Z,6.88
2016-10-09T05:04:12.102Z,6.91
2016-10-09T05:05:11.769Z,6.91
2016-10-09T05:06:12.026Z,6.88
2016-10-09T05:07:11.984Z,6.89
2016-10-09T05:08:11.655Z,6.87
2016-10-09T05:09:11.910Z,6.94
2016-10-09T05:10:11.874Z,6.88
2016-10-09T05:11:11.838Z,6.85
2016-10-09T05:12:11.792Z,6.85
2016-10-09T05:13:11.759Z,6.91
2016-10-09T05:14:11.714Z,6.88
2016-10-09T05:15:11.683Z,6.92
2016-10-09T05:16:11.639Z,6.92
2016-10-09T05:17:11.599Z,6.94
2016-10-09T05:18:11.568Z,6.94
2016-10-09T05:19:11.220Z,6.89
2016-10-09T05:20:11.481Z,6.87
2016-10-09T05:21:11.143Z,6.88
2016-10-09T05:22:11.407Z,6.91
2016-10-09T05:23:11.386Z,6.91
2016-10-09T05:24:11.329Z,6.97
2016-10-09T05:25:11.289Z,6.91
2016-10-09T05:26:11.246Z,6.89
2016-10-09T05:27:11.214Z,6.88
2016-10-09T05:28:10.869Z,6.88
2016-10-09T05:29:11.144Z,7.02
2016-10-09T05:30:11.090Z,6.97
2016-10-09T05:31:11.064Z,6.87
2016-10-09T05:32:11.020Z,6.85
2016-10-09T05:33:10.979Z,6.98
2016-10-09T05:34:10.936Z,6.99
2016-10-09T05:35:10.902Z,6.98
2016-10-09T05:36:10.857Z,7.02
2016-10-09T05:37:10.828Z,7.05
2016-10-09T05:38:10.480Z,7.06
2016-10-09T05:39:10.442Z,7.06
2016-10-09T05:40:10.707Z,7.07
2016-10-09T05:41:10.666Z,6.98
2016-10-09T05:42:10.635Z,7.13
2016-10-09T05:43:10.590Z,7.03
2016-10-09T05:44:10.550Z,7.12
2016-10-09T05:45:10.512Z,7.09
2016-10-09T05:46:10.476Z,7.24
2016-10-09T05:47:10.436Z,7.23
2016-10-09T05:48:10.398Z,7.2
2016-10-09T05:49:10.058Z,7.23
2016-10-09T05:50:10.317Z,7.21
2016-10-09T05:51:09.978Z,7.28
2016-10-09T05:52:10.242Z,7.32
2016-10-09T05:53:09.898Z,7.32
2016-10-09T05:54:10.181Z,7.31
2016-10-09T05:55:10.128Z,7.35
2016-10-09T05:56:09.784Z,7.43
2016-10-09T05:57:10.046Z,7.35
2016-10-09T05:58:10.010Z,7.53
2016-10-09T05:59:09.969Z,7.55
2016-10-09T06:00:09.930Z,7.52
2016-10-09T06:01:09.594Z,7.64
2016-10-09T06:02:09.851Z,7.68
2016-10-09T06:03:09.512Z,7.67
2016-10-09T06:04:09.774Z,7.71
2016-10-09T06:05:09.435Z,7.82
2016-10-09T06:06:09.699Z,7.87
2016-10-09T06:07:09.365Z,7.9
2016-10-09T06:08:09.623Z,7.89
2016-10-09T06:09:09.584Z,7.98
2016-10-09T06:10:09.548Z,7.97
2016-10-09T06:11:09.207Z,8.05
2016-10-09T06:12:09.467Z,8.07
2016-10-09T06:13:09.430Z,8.15
2016-10-09T06:14:09.395Z,8.22
2016-10-09T06:15:09.354Z,8.22
2016-10-09T06:16:09.310Z,8.33
2016-10-09T06:17:08.975Z,8.33
2016-10-09T06:18:09.235Z,8.34
2016-10-09T06:19:08.898Z,8.41
2016-10-09T06:20:09.159Z,8.48
2016-10-09T06:21:09.132Z,8.63
2016-10-09T06:22:09.083Z,8.68
2016-10-09T06:23:09.047Z,8.74
2016-10-09T06:24:08.704Z,8.68
2016-10-09T06:25:08.979Z,8.71
2016-10-09T06:26:08.933Z,8.76
2016-10-09T06:27:08.592Z,8.77
2016-10-09T06:28:08.857Z,8.74
2016-10-09T06:29:08.522Z,8.71
2016-10-09T06:30:08.779Z,8.74
2016-10-09T06:31:08.442Z,8.74
2016-10-09T06:32:08.410Z,8.79
2016-10-09T06:33:08.669Z,8.77
2016-10-09T06:34:08.328Z,8.7
2016-10-09T06:35:08.600Z,8.86
2016-10-09T06:36:08.556Z,8.86
2016-10-09T06:37:08.213Z,8.84
2016-10-09T06:38:08.176Z,8.76
2016-10-09T06:39:08.144Z,8.83
2016-10-09T06:40:08.116Z,8.74
2016-10-09T06:41:08.368Z,8.83
2016-10-09T06:42:08.328Z,8.84
2016-10-09T06:43:08.311Z,8.8
2016-10-09T06:44:07.950Z,8.79
2016-10-09T06:45:08.213Z,8.92
2016-10-09T06:46:08.176Z,8.91
2016-10-09T06:47:07.838Z,8.95
2016-10-09T06:48:08.102Z,8.91
2016-10-09T06:49:08.064Z,8.98
2016-10-09T06:50:07.736Z,8.95
2016-10-09T06:51:07.988Z,8.96
2016-10-09T06:52:07.948Z,9.01
2016-10-09T06:53:07.918Z,8.98
2016-10-09T06:54:07.891Z,8.92
2016-10-09T06:55:07.841Z,8.96
2016-10-09T06:56:07.800Z,8.99
2016-10-09T06:57:07.763Z,8.96
2016-10-09T06:58:07.728Z,9.11
2016-10-09T06:59:07.083Z,9.02
2016-10-09T07:00:07.649Z,9.05
2016-10-09T07:01:07.310Z,8.98
2016-10-09T07:02:07.594Z,9.02
2016-10-09T07:03:07.560Z,8.94
2016-10-09T07:04:07.198Z,9.04
2016-10-09T07:05:07.463Z,8.98
2016-10-09T07:06:07.429Z,8.96
2016-10-09T07:07:07.383Z,8.96
2016-10-09T07:08:07.355Z,9.02
2016-10-09T07:09:07.312Z,9.05
2016-10-09T07:10:07.273Z,9.11
2016-10-09T07:11:07.235Z,9.24
2016-10-09T07:12:06.897Z,9.28
2016-10-09T07:13:07.170Z,9.18
2016-10-09T07:14:07.125Z,9.17
2016-10-09T07:15:07.090Z,9.17
2016-10-09T07:16:07.059Z,9.24
2016-10-09T07:17:07.011Z,9.32
2016-10-09T07:18:06.978Z,9.42
2016-10-09T07:19:06.939Z,9.38
2016-10-09T07:20:06.299Z,9.38
2016-10-09T07:21:06.560Z,9.43
2016-10-09T07:22:06.527Z,9.43
2016-10-09T07:23:06.788Z,9.42
2016-10-09T07:24:06.753Z,9.58
2016-10-09T07:25:06.710Z,9.56
2016-10-09T07:26:06.717Z,9.6
2016-10-09T07:27:06.035Z,9.69
2016-10-09T07:28:06.600Z,9.74
2016-10-09T07:29:06.572Z,9.79
2016-10-09T07:30:06.528Z,9.83
2016-10-09T07:31:06.499Z,9.87
2016-10-09T07:32:06.449Z,9.87
2016-10-09T07:33:06.424Z,9.99
2016-10-09T07:34:06.375Z,10.02
2016-10-09T07:35:06.344Z,10.01
2016-10-09T07:36:06.303Z,10.2
2016-10-09T07:37:06.268Z,10.23
2016-10-09T07:38:06.231Z,10.33
2016-10-09T07:39:06.191Z,10.29
2016-10-09T07:40:06.157Z,10.33
2016-10-09T07:41:06.123Z,10.2
2016-10-09T07:42:05.783Z,10.3
2016-10-09T07:43:06.050Z,10.38
2016-10-09T07:44:06.009Z,10.53
2016-10-09T07:45:05.974Z,10.68
2016-10-09T07:46:05.636Z,10.68
2016-10-09T07:47:05.599Z,10.74
2016-10-09T07:48:05.883Z,10.82
2016-10-09T07:49:05.822Z,10.85
2016-10-09T07:50:05.494Z,10.82
2016-10-09T07:51:05.754Z,10.92
2016-10-09T07:52:05.715Z,11
2016-10-09T07:53:05.680Z,11.07
2016-10-09T07:54:05.355Z,11.14
2016-10-09T07:55:05.002Z,11.17
2016-10-09T07:56:05.571Z,11.28
2016-10-09T07:57:05.234Z,11.32
2016-10-09T07:58:05.500Z,11.46
2016-10-09T07:59:05.465Z,11.54
2016-10-09T08:00:05.427Z,11.6
2016-10-09T08:01:05.391Z,11.49
2016-10-09T08:02:05.358Z,11.47
2016-10-09T08:03:05.017Z,11.58
2016-10-09T08:04:04.990Z,11.55
2016-10-09T08:05:05.248Z,11.55
2016-10-09T08:06:04.912Z,11.52
2016-10-09T08:07:04.873Z,11.39
2016-10-09T08:08:04.841Z,11.32
2016-10-09T08:09:05.102Z,11.4
2016-10-09T08:10:04.768Z,11.4
2016-10-09T08:11:05.041Z,11.25
2016-10-09T08:12:04.998Z,11.32
2016-10-09T08:13:04.961Z,11.32
2016-10-09T08:14:04.928Z,11.42
2016-10-09T08:15:04.891Z,11.37
2016-10-09T08:16:04.861Z,11.61
2016-10-09T08:17:04.822Z,11.9
2016-10-09T08:18:04.489Z,12.14
2016-10-09T08:19:04.753Z,12.45
2016-10-09T08:20:04.424Z,12.71
2016-10-09T08:21:04.380Z,12.77
2016-10-09T08:22:04.649Z,12.93
2016-10-09T08:23:04.310Z,12.89
2016-10-09T08:24:04.275Z,12.72
2016-10-09T08:25:04.243Z,12.72
2016-10-09T08:26:04.211Z,13.03
2016-10-09T08:27:04.171Z,13.23
2016-10-09T08:28:04.439Z,13.42
2016-10-09T08:29:04.407Z,13.55
2016-10-09T08:30:04.065Z,13.45
2016-10-09T08:31:04.336Z,13.42
2016-10-09T08:32:03.699Z,13.59
2016-10-09T08:33:04.267Z,13.73
2016-10-09T08:34:03.931Z,13.75
2016-10-09T08:35:04.201Z,13.75
2016-10-09T08:36:03.860Z,13.77
2016-10-09T08:37:04.144Z,13.79
2016-10-09T08:38:04.102Z,13.75
2016-10-09T08:39:04.065Z,13.62
2016-10-09T08:40:03.728Z,13.81
2016-10-09T08:41:03.998Z,13.87
2016-10-09T08:42:03.662Z,14.07
2016-10-09T08:43:03.627Z,14.22
2016-10-09T08:44:03.898Z,14.43
2016-10-09T08:45:03.873Z,14.47
2016-10-09T08:46:03.834Z,14.36
2016-10-09T08:47:03.844Z,14.25
2016-10-09T08:48:03.763Z,14.25
2016-10-09T08:49:03.736Z,14.27
2016-10-09T08:50:03.703Z,14.43
2016-10-09T08:51:03.808Z,14.55
2016-10-09T08:52:03.637Z,14.68
2016-10-09T08:53:03.603Z,14.68
2016-10-09T08:54:03.572Z,14.61
2016-10-09T08:55:03.543Z,14.47
2016-10-09T08:56:03.506Z,14.62
2016-10-09T08:57:03.484Z,14.43
2016-10-09T08:58:03.447Z,14.43
2016-10-09T08:59:03.411Z,14.62
2016-10-09T09:00:03.379Z,15.01
2016-10-09T09:01:03.055Z,15.23
2016-10-09T09:02:03.313Z,15.35
2016-10-09T09:03:03.282Z,15.36
2016-10-09T09:04:02.945Z,15.35
2016-10-09T09:05:02.917Z,15.41
2016-10-09T09:06:02.883Z,15.65
2016-10-09T09:07:03.151Z,15.65
2016-10-09T09:08:03.121Z,15.62
2016-10-09T09:09:03.092Z,15.21
2016-10-09T09:10:03.057Z,15.14
2016-10-09T09:11:03.068Z,14.95
2016-10-09T09:12:02.695Z,14.95
2016-10-09T09:13:02.972Z,14.68
2016-10-09T09:14:02.935Z,14.58
2016-10-09T09:15:02.900Z,14.61
2016-10-09T09:16:02.865Z,14.58
2016-10-09T09:17:02.837Z,14.57
2016-10-09T09:18:02.802Z,14.75
2016-10-09T09:19:02.790Z,14.89
2016-10-09T09:20:02.439Z,15.02
2016-10-09T09:21:02.713Z,15.09
2016-10-09T09:22:02.672Z,15.1
2016-10-09T09:23:02.037Z,14.95
2016-10-09T09:24:02.610Z,14.88
2016-10-09T09:25:02.577Z,14.88
2016-10-09T09:26:02.244Z,14.84
2016-10-09T09:27:02.517Z,14.91
2016-10-09T09:28:02.177Z,14.69
2016-10-09T09:29:02.455Z,14.6
2016-10-09T09:30:02.123Z,14.7
2016-10-09T09:31:02.383Z,14.81
2016-10-09T09:32:02.067Z,14.78
2016-10-09T09:33:02.327Z,14.6
2016-10-09T09:34:01.985Z,14.4
2016-10-09T09:35:02.252Z,14.04
2016-10-09T09:36:02.221Z,13.63
2016-10-09T09:37:01.587Z,13.54
2016-10-09T09:38:01.859Z,13.29
2016-10-09T09:39:02.133Z,13.2
2016-10-09T09:40:02.092Z,13.2
2016-10-09T09:41:02.060Z,13.26
2016-10-09T09:42:02.032Z,13.28
2016-10-09T09:43:01.689Z,13.3
2016-10-09T09:44:01.657Z,13.28
2016-10-09T09:45:01.930Z,13.36
2016-10-09T09:46:01.897Z,13.54
2016-10-09T09:47:01.864Z,13.7
2016-10-09T09:48:01.826Z,13.73
2016-10-09T09:49:01.798Z,13.64
2016-10-09T09:50:01.767Z,13.82
2016-10-09T09:51:01.740Z,13.97
2016-10-09T09:52:01.694Z,13.79
2016-10-09T09:53:01.373Z,13.77
2016-10-09T09:54:01.629Z,13.92
2016-10-09T09:55:01.289Z,14.09
2016-10-09T09:56:01.263Z,14.14
2016-10-09T09:57:01.228Z,14.35
2016-10-09T09:58:01.495Z,14.33
2016-10-09T09:59:01.468Z,14.4
2016-10-09T10:00:01.431Z,14.17
2016-10-09T10:01:01.395Z,13.91
2016-10-09T10:02:01.058Z,13.77
2016-10-09T10:03:01.327Z,13.81
2016-10-09T10:04:01.295Z,13.95
2016-10-09T10:05:01.257Z,14.12
2016-10-09T10:06:01.228Z,14.2
2016-10-09T10:07:01.201Z,14.33
2016-10-09T10:08:00.902Z,14.35
2016-10-09T10:09:01.128Z,14.33
2016-10-09T10:10:01.098Z,14.24
2016-10-09T10:11:01.074Z,14.2
2016-10-09T10:12:00.730Z,14.32
2016-10-09T10:13:00.995Z,14.28
2016-10-09T10:14:00.661Z,14.24
2016-10-09T10:15:00.938Z,13.91
2016-10-09T10:16:00.898Z,13.84
2016-10-09T10:17:00.863Z,13.67
2016-10-09T10:18:00.533Z,13.7
2016-10-09T10:19:00.796Z,13.84
2016-10-09T10:20:00.762Z,13.95
2016-10-09T10:21:00.741Z,13.97
2016-10-09T10:22:00.393Z,14.14
2016-10-09T10:23:00.660Z,14.35
2016-10-09T10:24:00.627Z,14.36
2016-10-09T10:25:00.292Z,14.45
2016-10-09T10:26:00.262Z,14.47
2016-10-09T10:27:00.233Z,14.58
2016-10-09T10:28:00.198Z,14.55
2016-10-09T10:29:00.463Z,14.37
2016-10-09T10:30:00.425Z,14.14
2016-10-09T10:31:00.412Z,14.1
2016-10-09T10:32:00.361Z,14.2
2016-10-09T10:33:00.026Z,14.27
2016-10-09T10:33:59.990Z,14.33
2016-10-09T10:34:59.960Z,14.42
2016-10-09T10:36:00.232Z,14.33
2016-10-09T10:37:00.195Z,14.4
2016-10-09T10:38:00.159Z,14.37
2016-10-09T10:39:00.133Z,14.42
2016-10-09T10:40:00.093Z,14.6
2016-10-09T10:41:00.064Z,14.65
2016-10-09T10:42:00.032Z,14.78
2016-10-09T10:42:59.426Z,14.96
2016-10-09T10:43:59.656Z,14.95
2016-10-09T10:44:59.632Z,15.03
2016-10-09T10:45:59.890Z,15.02
2016-10-09T10:46:59.560Z,15.07
2016-10-09T10:47:59.824Z,15.16
2016-10-09T10:48:59.795Z,15.13
2016-10-09T10:49:59.760Z,15.17
2016-10-09T10:50:59.730Z,15.19
2016-10-09T10:51:59.699Z,15.07
2016-10-09T10:52:59.366Z,15.21
2016-10-09T10:53:59.632Z,15.14
2016-10-09T10:54:59.301Z,15.11
2016-10-09T10:55:59.260Z,15.1
2016-10-09T10:56:59.228Z,15.1
2016-10-09T10:57:59.497Z,14.98
2016-10-09T10:58:59.464Z,14.95
2016-10-09T10:59:59.431Z,15.06
2016-10-09T11:00:59.093Z,15.17
2016-10-09T11:01:59.066Z,15.2
2016-10-09T11:02:59.330Z,15.31
2016-10-09T11:03:59.309Z,15.36
2016-10-09T11:04:59.275Z,15.41
2016-10-09T11:05:59.234Z,15.59
2016-10-09T11:06:59.204Z,15.6
2016-10-09T11:07:58.873Z,15.67
2016-10-09T11:08:59.135Z,15.65
2016-10-09T11:09:59.105Z,15.64
2016-10-09T11:10:58.769Z,15.56
2016-10-09T11:11:59.043Z,15.41
2016-10-09T11:12:58.712Z,15.39
2016-10-09T11:13:58.974Z,15.49
2016-10-09T11:14:58.638Z,15.67
2016-10-09T11:15:58.905Z,15.74
2016-10-09T11:16:58.879Z,15.89
2016-10-09T11:17:58.839Z,16.11
2016-10-09T11:18:58.808Z,16.17
2016-10-09T11:19:58.530Z,16.34
2016-10-09T11:20:58.744Z,16.42
2016-10-09T11:21:58.718Z,16.46
2016-10-09T11:22:58.376Z,16.52
2016-10-09T11:23:58.346Z,16.58
2016-10-09T11:24:58.618Z,16.67
2016-10-09T11:25:58.286Z,16.71
2016-10-09T11:26:58.554Z,16.75
2016-10-09T11:27:58.522Z,16.83
2016-10-09T11:28:58.183Z,16.73
2016-10-09T11:29:58.455Z,16.68
2016-10-09T11:30:58.423Z,16.73
2016-10-09T11:31:58.095Z,16.7
2016-10-09T11:32:58.359Z,16.73
2016-10-09T11:33:58.329Z,16.78
2016-10-09T11:34:58.339Z,16.63
2016-10-09T11:35:58.270Z,16.68
2016-10-09T11:36:58.228Z,16.82
2016-10-09T11:37:57.898Z,16.83
2016-10-09T11:38:57.863Z,16.85
2016-10-09T11:39:57.838Z,16.91
2016-10-09T11:40:58.104Z,17
2016-10-09T11:41:58.072Z,17.07
2016-10-09T11:42:58.050Z,17.14
2016-10-09T11:43:57.711Z,17.14
2016-10-09T11:44:57.976Z,16.98
2016-10-09T11:45:57.650Z,17.04
2016-10-09T11:46:57.919Z,17.11
2016-10-09T11:47:57.908Z,17.06
2016-10-09T11:48:57.856Z,17.07
2016-10-09T11:49:57.519Z,17.06
2016-10-09T11:50:57.794Z,17.14
2016-10-09T11:51:57.775Z,17.16
2016-10-09T11:52:57.725Z,17.06
2016-10-09T11:53:57.389Z,17.07
2016-10-09T11:54:57.360Z,17
2016-10-09T11:55:57.629Z,17.06
2016-10-09T11:56:57.600Z,17.04
2016-10-09T11:57:57.568Z,17.15
2016-10-09T11:58:57.236Z,17.04
2016-10-09T11:59:57.204Z,16.98
2016-10-09T12:00:57.471Z,16.94
2016-10-09T12:01:57.440Z,16.68
2016-10-09T12:02:57.410Z,16.63
2016-10-09T12:03:57.375Z,16.53
2016-10-09T12:04:57.359Z,16.56
2016-10-09T12:05:57.010Z,16.42
2016-10-09T12:06:56.982Z,16.39
2016-10-09T12:07:57.251Z,16.43
2016-10-09T12:08:56.923Z,16.52
2016-10-09T12:09:56.584Z,16.56
2016-10-09T12:10:57.159Z,16.57
2016-10-09T12:11:57.126Z,16.64
2016-10-09T12:12:57.113Z,16.73
2016-10-09T12:13:57.059Z,16.63
2016-10-09T12:14:57.040Z,16.71
2016-10-09T12:15:56.994Z,16.75
2016-10-09T12:16:56.966Z,16.7
2016-10-09T12:17:56.636Z,16.78
2016-10-09T12:18:56.903Z,16.76
2016-10-09T12:19:56.883Z,16.68
2016-10-09T12:20:56.536Z,16.58
2016-10-09T12:21:56.501Z,16.52
2016-10-09T12:22:56.779Z,16.6
2016-10-09T12:23:56.743Z,16.56
2016-10-09T12:24:56.710Z,16.52
2016-10-09T12:25:56.674Z,16.3
2016-10-09T12:26:56.344Z,16.24
2016-10-09T12:27:56.312Z,16.21
2016-10-09T12:28:56.290Z,16.07
2016-10-09T12:29:56.548Z,15.84
2016-10-09T12:30:56.223Z,15.82
2016-10-09T12:31:56.183Z,15.68
2016-10-09T12:32:56.158Z,15.69
2016-10-09T12:33:56.117Z,15.59
2016-10-09T12:34:56.389Z,15.44
2016-10-09T12:35:56.060Z,15.38
2016-10-09T12:36:56.329Z,15.35
2016-10-09T12:37:55.685Z,15.28
2016-10-09T12:38:55.957Z,15.31
2016-10-09T12:39:56.227Z,15.27
2016-10-09T12:40:56.194Z,15.19
2016-10-09T12:41:55.561Z,15.13
2016-10-09T12:42:56.136Z,15.14
2016-10-09T12:43:56.095Z,15.07
2016-10-09T12:44:56.075Z,15.02
2016-10-09T12:45:56.028Z,15.02
2016-10-09T12:46:55.998Z,14.92
2016-10-09T12:47:55.973Z,14.81
2016-10-09T12:48:55.956Z,14.6
2016-10-09T12:49:55.595Z,14.58
2016-10-09T12:50:55.879Z,14.43
2016-10-09T12:51:55.832Z,14.43
2016-10-09T12:52:55.818Z,14.36
2016-10-09T12:53:55.463Z,14.29
2016-10-09T12:54:55.750Z,14.39
2016-10-09T12:55:55.404Z,14.47
2016-10-09T12:56:55.669Z,14.37
2016-10-09T12:57:55.330Z,14.35
2016-10-09T12:58:55.307Z,14.4
2016-10-09T12:59:55.567Z,14.28
2016-10-09T13:00:55.232Z,14.32
2016-10-09T13:01:55.500Z,14.42
2016-10-09T13:02:55.164Z,14.42
2016-10-09T13:03:55.434Z,14.39
2016-10-09T13:04:55.100Z,14.39
2016-10-09T13:05:55.068Z,14.37
2016-10-09T13:06:55.031Z,14.35
2016-10-09T13:07:54.993Z,14.36
2016-10-09T13:08:55.263Z,14.37